createdAt,value
2018-07-15T00:00:28.242Z,4.97
2018-07-15T00:02:58.085Z,5.10
2018-07-15T00:05:27.932Z,5.07
2018-07-15T00:07:57.772Z,5.03
2018-07-15T00:10:27.631Z,4.80
2018-07-15T00:12:57.409Z,4.77
2018-07-15T00:15:27.388Z,4.90
2018-07-15T00:17:57.236Z,4.90
2018-07-15T00:20:27.081Z,5.20
2018-07-15T00:22:56.928Z,5.50
2018-07-15T00:25:26.747Z,5.00
2018-07-15T00:27:56.578Z,4.60
2018-07-15T00:30:26.445Z,4.67
2018-07-15T00:32:56.276Z,5.03
2018-07-15T00:35:26.144Z,4.73
2018-07-15T00:37:55.992Z,4.53
2018-07-15T00:40:25.851Z,4.60
2018-07-15T00:42:55.806Z,4.83
2018-07-15T00:45:25.627Z,5.23
2018-07-15T00:47:55.535Z,4.80
2018-07-15T00:50:25.385Z,5.30
2018-07-15T00:52:55.311Z,5.40
2018-07-15T00:55:25.206Z,5.17
2018-07-15T00:57:55.040Z,5.20
2018-07-15T01:00:29.867Z,5.23
2018-07-15T01:02:59.800Z,5.13
2018-07-15T01:05:29.635Z,4.80
2018-07-15T01:07:59.489Z,5.13
2018-07-15T01:10:29.351Z,5.60
2018-07-15T01:12:59.168Z,6.00
2018-07-15T01:15:29.043Z,5.63
2018-07-15T01:17:58.884Z,5.83
2018-07-15T01:20:28.969Z,5.77
2018-07-15T01:22:58.825Z,5.37
2018-07-15T01:25:28.703Z,5.80
2018-07-15T01:27:58.557Z,5.63
2018-07-15T01:30:28.432Z,5.30
2018-07-15T01:32:58.268Z,5.90
2018-07-15T01:35:28.100Z,6.17
2018-07-15T01:37:57.943Z,6.00
2018-07-15T01:40:27.792Z,6.20
2018-07-15T01:42:57.627Z,6.07
2018-07-15T01:45:27.466Z,5.20
2018-07-15T01:47:57.396Z,5.83
2018-07-15T01:50:27.188Z,5.40
2018-07-15T01:52:57.072Z,5.13
2018-07-15T01:55:26.900Z,5.40
2018-07-15T01:57:56.740Z,5.77
2018-07-15T02:00:26.541Z,5.20
2018-07-15T02:02:56.392Z,5.00
2018-07-15T02:05:26.236Z,5.47
2018-07-15T02:07:56.121Z,5.40
2018-07-15T02:10:25.904Z,5.07
2018-07-15T02:12:55.725Z,4.73
2018-07-15T02:15:25.532Z,5.00
2018-07-15T02:17:55.413Z,5.17
2018-07-15T02:20:25.271Z,5.50
2018-07-15T02:22:55.104Z,5.50
2018-07-15T02:25:24.952Z,5.73
2018-07-15T02:27:54.792Z,5.93
2018-07-15T02:30:24.692Z,5.93
2018-07-15T02:32:54.534Z,5.77
2018-07-15T02:35:24.405Z,5.73
2018-07-15T02:37:54.237Z,5.50
2018-07-15T02:40:24.082Z,5.70
2018-07-15T02:42:53.995Z,5.77
2018-07-15T02:45:23.936Z,5.60
2018-07-15T02:47:53.784Z,5.60
2018-07-15T02:50:23.659Z,6.07
2018-07-15T02:52:53.541Z,5.50
2018-07-15T02:55:23.385Z,5.37
2018-07-15T02:57:53.196Z,5.47
2018-07-15T03:00:23.080Z,5.50
2018-07-15T03:02:52.872Z,5.97
2018-07-15T03:05:22.761Z,5.30
2018-07-15T03:07:52.571Z,4.90
2018-07-15T03:10:22.421Z,4.90
2018-07-15T03:12:52.280Z,5.03
2018-07-15T03:15:22.090Z,5.50
2018-07-15T03:17:51.939Z,5.33
2018-07-15T03:20:21.788Z,5.50
2018-07-15T03:22:51.632Z,6.27
2018-07-15T03:25:21.454Z,5.70
2018-07-15T03:27:51.292Z,5.70
2018-07-15T03:30:21.147Z,5.17
2018-07-15T03:32:51.000Z,5.63
2018-07-15T03:35:20.852Z,5.50
2018-07-15T03:37:50.652Z,5.33
2018-07-15T03:40:20.501Z,5.20
2018-07-15T03:42:50.316Z,5.07
2018-07-15T03:45:20.144Z,5.30
2018-07-15T03:47:49.944Z,5.20
2018-07-15T03:50:19.788Z,5.00
2018-07-15T03:52:49.648Z,5.53
2018-07-15T03:55:19.655Z,5.30
2018-07-15T03:57:49.472Z,5.60
2018-07-15T04:00:19.300Z,4.90
2018-07-15T04:02:49.163Z,4.67
2018-07-15T04:05:19.000Z,4.80
2018-07-15T04:07:48.839Z,4.87
2018-07-15T04:10:18.726Z,4.93
2018-07-15T04:12:48.533Z,4.67
2018-07-15T04:15:18.380Z,5.30
2018-07-15T04:17:52.272Z,5.10
2018-07-15T04:20:22.064Z,5.40
2018-07-15T04:22:51.931Z,5.20
2018-07-15T04:25:21.709Z,5.70
2018-07-15T04:27:51.572Z,5.10
2018-07-15T04:30:21.460Z,5.00
2018-07-15T04:32:51.270Z,5.17
2018-07-15T04:35:21.112Z,4.80
2018-07-15T04:37:50.975Z,4.80
2018-07-15T04:40:21.414Z,4.70
2018-07-15T04:42:51.506Z,4.80
2018-07-15T04:45:21.460Z,4.73
2018-07-15T04:47:51.308Z,4.70
2018-07-15T04:50:21.136Z,4.83
2018-07-15T04:52:51.008Z,5.10
2018-07-15T04:55:20.824Z,4.80
2018-07-15T04:57:50.724Z,4.77
2018-07-15T05:00:20.541Z,4.67
2018-07-15T05:02:50.405Z,5.10
2018-07-15T05:05:20.250Z,4.70
2018-07-15T05:07:50.127Z,4.57
2018-07-15T05:10:19.960Z,4.60
2018-07-15T05:12:49.771Z,4.70
2018-07-15T05:15:19.615Z,5.57
2018-07-15T05:17:49.464Z,4.40
2018-07-15T05:20:19.272Z,4.50
2018-07-15T05:22:49.162Z,4.70
2018-07-15T05:25:19.032Z,4.33
2018-07-15T05:27:48.884Z,4.53
2018-07-15T05:30:18.703Z,4.20
2018-07-15T05:32:48.633Z,5.03
2018-07-15T05:35:18.457Z,4.23
2018-07-15T05:37:48.388Z,4.70
2018-07-15T05:40:18.357Z,4.50
2018-07-15T05:42:48.276Z,4.60
2018-07-15T05:45:18.154Z,4.77
2018-07-15T05:47:47.971Z,4.97
2018-07-15T05:50:17.809Z,4.73
2018-07-15T05:52:47.571Z,4.30
2018-07-15T05:55:17.481Z,4.57
2018-07-15T05:57:47.311Z,4.90
2018-07-15T06:00:17.128Z,4.67
2018-07-15T06:02:46.972Z,4.57
2018-07-15T06:05:16.821Z,4.37
2018-07-15T06:07:46.668Z,4.73
2018-07-15T06:10:16.448Z,4.47
2018-07-15T06:12:46.303Z,4.60
2018-07-15T06:15:16.137Z,4.50
2018-07-15T06:17:46.020Z,4.30
2018-07-15T06:20:15.908Z,4.47
2018-07-15T06:22:45.835Z,5.10
2018-07-15T06:25:15.649Z,4.93
2018-07-15T06:27:45.531Z,4.47
2018-07-15T06:30:15.384Z,4.10
2018-07-15T06:32:45.160Z,5.20
2018-07-15T06:35:15.345Z,4.40
2018-07-15T06:37:45.160Z,4.37
2018-07-15T06:40:15.091Z,4.40
2018-07-15T06:42:44.908Z,3.97
2018-07-15T06:45:14.756Z,4.47
2018-07-15T06:47:44.593Z,4.03
2018-07-15T06:50:14.643Z,4.10
2018-07-15T06:52:44.468Z,4.00
2018-07-15T06:55:14.284Z,4.07
2018-07-15T06:57:44.111Z,4.37
2018-07-15T07:00:13.981Z,4.20
2018-07-15T07:02:43.849Z,3.90
2018-07-15T07:05:13.647Z,4.10
2018-07-15T07:07:43.565Z,4.23
2018-07-15T07:10:13.648Z,4.10
2018-07-15T07:12:43.453Z,3.80
2018-07-15T07:15:13.311Z,3.90
2018-07-15T07:17:43.164Z,4.03
2018-07-15T07:20:12.965Z,4.50
2018-07-15T07:22:42.788Z,4.10
2018-07-15T07:25:12.713Z,4.20
2018-07-15T07:27:42.568Z,4.30
2018-07-15T07:30:12.468Z,4.60
2018-07-15T07:32:42.309Z,4.40
2018-07-15T07:35:12.142Z,4.43
2018-07-15T07:37:41.940Z,3.80
2018-07-15T07:40:11.815Z,3.83
2018-07-15T07:42:41.655Z,3.80
2018-07-15T07:45:11.498Z,3.73
2018-07-15T07:47:41.319Z,3.80
2018-07-15T07:50:11.221Z,3.90
2018-07-15T07:52:41.256Z,4.10
2018-07-15T07:55:11.128Z,3.90
2018-07-15T07:57:40.983Z,3.63
2018-07-15T08:00:10.803Z,4.27
2018-07-15T08:02:40.629Z,3.90
2018-07-15T08:05:10.437Z,3.80
2018-07-15T08:07:40.285Z,3.83
2018-07-15T08:10:10.148Z,3.73
2018-07-15T08:12:39.981Z,3.47
2018-07-15T08:15:09.896Z,3.90
2018-07-15T08:17:39.829Z,3.73
2018-07-15T08:20:09.741Z,3.80
2018-07-15T08:22:39.598Z,3.53
2018-07-15T08:25:09.617Z,4.40
2018-07-15T08:27:39.443Z,3.50
2018-07-15T08:30:20.262Z,3.60
2018-07-15T08:32:50.068Z,3.90
2018-07-15T08:35:19.928Z,3.90
2018-07-15T08:37:49.844Z,3.90
2018-07-15T08:40:19.800Z,3.60
2018-07-15T08:42:49.663Z,3.80
2018-07-15T08:45:19.493Z,3.87
2018-07-15T08:47:49.384Z,3.30
2018-07-15T08:50:19.232Z,4.00
2018-07-15T08:52:49.044Z,3.57
2018-07-15T08:55:18.921Z,3.87
2018-07-15T08:57:48.714Z,3.63
2018-07-15T09:00:18.549Z,3.53
2018-07-15T09:02:48.500Z,3.37
2018-07-15T09:05:18.428Z,3.47
2018-07-15T09:07:48.246Z,3.60
2018-07-15T09:10:18.049Z,3.20
2018-07-15T09:12:47.932Z,3.20
2018-07-15T09:15:17.854Z,3.20
2018-07-15T09:17:47.613Z,3.17
2018-07-15T09:20:17.452Z,3.90
2018-07-15T09:22:47.272Z,3.27
2018-07-15T09:25:17.178Z,3.33
2018-07-15T09:27:47.078Z,3.37
2018-07-15T09:30:16.935Z,3.30
2018-07-15T09:32:47.035Z,3.50
2018-07-15T09:35:16.870Z,3.07
2018-07-15T09:37:46.712Z,3.43
2018-07-15T09:40:16.528Z,3.50
2018-07-15T09:42:46.385Z,3.10
2018-07-15T09:45:16.320Z,2.90
2018-07-15T09:47:46.217Z,3.27
2018-07-15T09:50:16.012Z,3.33
2018-07-15T09:52:45.893Z,3.40
2018-07-15T09:55:15.735Z,4.10
2018-07-15T09:57:45.616Z,3.10
2018-07-15T10:00:20.524Z,3.43
2018-07-15T10:02:50.432Z,3.00
2018-07-15T10:05:20.296Z,3.40
2018-07-15T10:07:50.072Z,3.10
2018-07-15T10:10:19.930Z,3.60
2018-07-15T10:12:49.723Z,3.27
2018-07-15T10:15:19.577Z,3.80
2018-07-15T10:17:49.396Z,3.20
2018-07-15T10:20:19.220Z,3.50
2018-07-15T10:22:49.017Z,3.40
2018-07-15T10:25:18.864Z,3.13
2018-07-15T10:27:48.701Z,3.10
2018-07-15T10:30:18.489Z,3.30
2018-07-15T10:32:48.376Z,3.37
2018-07-15T10:35:18.225Z,3.10
2018-07-15T10:37:48.118Z,3.07
2018-07-15T10:40:17.910Z,2.77
2018-07-15T10:42:47.796Z,3.20
2018-07-15T10:45:17.616Z,3.20
2018-07-15T10:47:47.447Z,3.23
2018-07-15T10:50:17.227Z,3.00
2018-07-15T10:52:47.077Z,2.90
2018-07-15T10:55:16.897Z,2.90
2018-07-15T10:57:46.724Z,3.00
2018-07-15T11:00:16.634Z,3.03
2018-07-15T11:02:46.497Z,3.00
2018-07-15T11:05:16.276Z,2.93
2018-07-15T11:07:46.111Z,2.83
2018-07-15T11:10:15.961Z,3.00
2018-07-15T11:12:45.794Z,3.00
2018-07-15T11:15:15.710Z,3.07
2018-07-15T11:17:45.663Z,3.00
2018-07-15T11:20:15.468Z,2.63
2018-07-15T11:22:45.308Z,3.20
2018-07-15T11:25:15.112Z,2.90
2018-07-15T11:27:44.964Z,2.83
2018-07-15T11:30:14.814Z,2.97
2018-07-15T11:32:44.624Z,3.10
2018-07-15T11:35:14.476Z,3.30
2018-07-15T11:37:44.300Z,2.90
2018-07-15T11:40:14.200Z,3.27
2018-07-15T11:42:44.064Z,2.90
2018-07-15T11:45:13.901Z,2.77
2018-07-15T11:47:43.672Z,2.83
2018-07-15T11:50:13.527Z,3.03
2018-07-15T11:52:43.364Z,2.90
2018-07-15T11:55:13.250Z,3.20
2018-07-15T11:57:43.164Z,2.97
2018-07-15T12:00:13.055Z,2.90
2018-07-15T12:02:42.876Z,3.30
2018-07-15T12:05:12.753Z,3.70
2018-07-15T12:07:42.525Z,3.70
2018-07-15T12:10:12.381Z,3.20
2018-07-15T12:12:42.189Z,3.77
2018-07-15T12:15:12.008Z,3.20
2018-07-15T12:17:41.812Z,2.77
2018-07-15T12:20:11.619Z,3.17
2018-07-15T12:22:41.581Z,3.17
2018-07-15T12:25:11.380Z,3.13
2018-07-15T12:27:41.238Z,3.90
2018-07-15T12:30:11.111Z,3.77
2018-07-15T12:32:40.943Z,3.53
2018-07-15T12:35:10.772Z,3.80
2018-07-15T12:37:40.583Z,3.70
2018-07-15T12:40:10.364Z,3.40
2018-07-15T12:42:40.149Z,3.47
2018-07-15T12:45:09.925Z,3.40
2018-07-15T12:47:39.772Z,3.23
2018-07-15T12:50:09.646Z,3.00
2018-07-15T12:52:39.468Z,2.90
2018-07-15T12:55:09.292Z,2.67
2018-07-15T12:57:39.116Z,2.73
2018-07-15T13:00:08.964Z,2.90
2018-07-15T13:02:38.856Z,2.70
2018-07-15T13:05:08.729Z,2.37
2018-07-15T13:07:38.528Z,2.80
2018-07-15T13:10:08.388Z,2.77
2018-07-15T13:12:38.227Z,2.27
2018-07-15T13:15:08.098Z,2.50
2018-07-15T13:17:37.996Z,2.27
2018-07-15T13:20:07.880Z,2.47
2018-07-15T13:22:37.676Z,2.57
2018-07-15T13:25:07.496Z,2.40
2018-07-15T13:27:37.397Z,2.40
2018-07-15T13:30:07.344Z,2.33
2018-07-15T13:32:37.297Z,2.40
2018-07-15T13:35:07.200Z,2.50
2018-07-15T13:37:37.135Z,2.53
2018-07-15T13:40:07.004Z,2.50
2018-07-15T13:42:36.808Z,2.40
2018-07-15T13:45:06.656Z,2.40
2018-07-15T13:47:36.495Z,2.27
2018-07-15T13:50:06.356Z,2.40
2018-07-15T13:52:36.168Z,2.40
2018-07-15T13:55:06.251Z,2.80
2018-07-15T13:57:36.053Z,2.47
2018-07-15T14:00:07.379Z,2.57
2018-07-15T14:02:37.400Z,2.60
2018-07-15T14:05:07.596Z,2.50
2018-07-15T14:07:37.435Z,2.57
2018-07-15T14:10:07.269Z,2.40
2018-07-15T14:12:37.076Z,2.60
2018-07-15T14:15:06.936Z,2.53
2018-07-15T14:17:36.748Z,2.40
2018-07-15T14:20:07.017Z,2.53
2018-07-15T14:22:36.845Z,2.13
2018-07-15T14:25:06.688Z,2.33
2018-07-15T14:27:36.508Z,2.20
2018-07-15T14:30:07.751Z,2.43
2018-07-15T14:32:38.167Z,2.60
2018-07-15T14:35:09.128Z,2.63
2018-07-15T14:37:39.041Z,2.63
2018-07-15T14:40:08.937Z,2.40
2018-07-15T14:42:38.842Z,2.20
2018-07-15T14:45:08.660Z,2.30
2018-07-15T14:47:38.506Z,2.57
2018-07-15T14:50:08.344Z,2.47
2018-07-15T14:52:38.171Z,2.00
2018-07-15T14:55:08.136Z,2.50
2018-07-15T14:57:37.947Z,2.60
2018-07-15T15:00:07.794Z,2.40
2018-07-15T15:02:37.656Z,2.40
2018-07-15T15:05:07.909Z,2.57
2018-07-15T15:07:37.759Z,2.60
2018-07-15T15:10:07.589Z,2.50
2018-07-15T15:12:37.403Z,2.30
2018-07-15T15:15:07.236Z,2.10
2018-07-15T15:17:37.060Z,2.53
2018-07-15T15:20:06.869Z,2.30
2018-07-15T15:22:36.904Z,2.50
2018-07-15T15:25:06.902Z,2.50
2018-07-15T15:27:36.682Z,2.50
2018-07-15T15:30:06.631Z,2.57
2018-07-15T15:32:36.652Z,2.03
2018-07-15T15:35:06.452Z,2.80
2018-07-15T15:37:36.276Z,2.60
2018-07-15T15:40:06.147Z,2.70
2018-07-15T15:42:35.979Z,2.70
2018-07-15T15:45:05.897Z,2.43
2018-07-15T15:47:35.810Z,2.70
2018-07-15T15:50:05.872Z,2.47
2018-07-15T15:52:35.693Z,2.50
2018-07-15T15:55:05.629Z,2.57
2018-07-15T15:57:35.472Z,2.53
2018-07-15T16:00:05.440Z,2.43
2018-07-15T16:02:35.291Z,2.70
2018-07-15T16:05:05.128Z,2.60
2018-07-15T16:07:34.940Z,2.43
2018-07-15T16:10:04.756Z,2.70
2018-07-15T16:12:34.634Z,2.70
2018-07-15T16:15:04.536Z,2.63
2018-07-15T16:17:34.385Z,2.60
2018-07-15T16:20:04.300Z,2.13
2018-07-15T16:22:34.144Z,2.27
2018-07-15T16:25:03.987Z,2.60
2018-07-15T16:27:33.960Z,2.37
2018-07-15T16:30:03.881Z,2.70
2018-07-15T16:32:33.748Z,2.90
2018-07-15T16:35:03.532Z,3.00
2018-07-15T16:37:33.341Z,2.70
2018-07-15T16:40:03.124Z,2.47
2018-07-15T16:42:32.948Z,2.80
2018-07-15T16:45:02.726Z,2.37
2018-07-15T16:47:32.544Z,2.67
2018-07-15T16:50:02.305Z,2.60
2018-07-15T16:52:32.125Z,2.70
2018-07-15T16:55:01.956Z,2.97
2018-07-15T16:57:31.771Z,2.47
2018-07-15T17:00:01.560Z,2.70
2018-07-15T17:02:31.364Z,2.90
2018-07-15T17:05:01.276Z,2.90
2018-07-15T17:07:31.068Z,2.93
2018-07-15T17:10:00.864Z,3.13
2018-07-15T17:12:30.621Z,3.33
2018-07-15T17:15:00.537Z,3.00
2018-07-15T17:17:30.348Z,3.50
2018-07-15T17:20:00.197Z,3.20
2018-07-15T17:22:29.968Z,3.13
2018-07-15T17:24:59.798Z,3.33
2018-07-15T17:27:29.626Z,3.20
2018-07-15T17:29:59.402Z,3.27
2018-07-15T17:32:29.207Z,3.47
2018-07-15T17:34:59.062Z,3.33
2018-07-15T17:37:28.901Z,3.33
2018-07-15T17:39:58.712Z,3.30
2018-07-15T17:42:28.535Z,3.33
2018-07-15T17:44:58.343Z,3.60
2018-07-15T17:47:28.112Z,3.40
2018-07-15T17:49:57.932Z,3.33
2018-07-15T17:52:27.740Z,3.10
2018-07-15T17:54:57.551Z,3.10
2018-07-15T17:57:27.364Z,3.30
2018-07-15T17:59:57.180Z,2.90
2018-07-15T18:02:26.970Z,3.10
2018-07-15T18:04:56.881Z,3.03
2018-07-15T18:07:26.680Z,3.40
2018-07-15T18:09:56.468Z,3.73
2018-07-15T18:12:26.300Z,5.07
2018-07-15T18:14:56.088Z,4.53
2018-07-15T18:17:25.924Z,3.60
2018-07-15T18:19:55.827Z,3.63
2018-07-15T18:22:25.611Z,3.50
2018-07-15T18:24:55.477Z,3.40
2018-07-15T18:27:25.299Z,3.70
2018-07-15T18:29:55.132Z,4.70
2018-07-15T18:32:24.896Z,6.23
2018-07-15T18:34:54.708Z,5.67
2018-07-15T18:37:24.511Z,5.50
2018-07-15T18:39:54.316Z,5.03
2018-07-15T18:42:24.080Z,4.90
2018-07-15T18:44:53.930Z,4.47
2018-07-15T18:47:23.737Z,4.67
2018-07-15T18:49:53.521Z,4.50
2018-07-15T18:52:23.404Z,3.80
2018-07-15T18:54:53.224Z,4.03
2018-07-15T18:57:23.021Z,4.10
2018-07-15T18:59:52.993Z,3.87
2018-07-15T19:02:22.816Z,3.80
2018-07-15T19:04:52.668Z,3.60
2018-07-15T19:07:22.473Z,3.77
2018-07-15T19:09:52.276Z,3.70
2018-07-15T19:12:22.104Z,4.13
2018-07-15T19:14:51.872Z,3.53
2018-07-15T19:17:21.764Z,3.50
2018-07-15T19:19:51.584Z,3.40
2018-07-15T19:22:21.408Z,3.37
2018-07-15T19:24:51.220Z,3.50
2018-07-15T19:27:21.062Z,3.70
2018-07-15T19:29:50.850Z,3.70
2018-07-15T19:32:20.671Z,4.03
2018-07-15T19:34:50.485Z,3.50
2018-07-15T19:37:20.328Z,3.67
2018-07-15T19:39:50.140Z,3.77
2018-07-15T19:42:20.005Z,4.10
2018-07-15T19:44:49.861Z,4.17
2018-07-15T19:47:19.645Z,3.80
2018-07-15T19:49:49.500Z,3.93
2018-07-15T19:52:19.370Z,4.10
2018-07-15T19:54:49.176Z,3.83
2018-07-15T19:57:18.984Z,3.90
2018-07-15T19:59:48.784Z,4.50
2018-07-15T20:02:18.588Z,3.87
2018-07-15T20:04:48.396Z,3.93
2018-07-15T20:07:18.227Z,4.00
2018-07-15T20:09:48.012Z,3.73
2018-07-15T20:12:17.855Z,4.07
2018-07-15T20:14:47.736Z,3.97
2018-07-15T20:17:17.556Z,3.90
2018-07-15T20:19:47.430Z,4.00
2018-07-15T20:22:17.234Z,3.80
2018-07-15T20:24:47.064Z,3.97
2018-07-15T20:27:16.872Z,4.00
2018-07-15T20:29:46.658Z,3.93
2018-07-15T20:32:16.517Z,4.10
2018-07-15T20:34:46.522Z,3.97
2018-07-15T20:37:16.292Z,4.30
2018-07-15T20:39:46.101Z,3.93
2018-07-15T20:42:15.921Z,4.00
2018-07-15T20:44:45.697Z,4.23
2018-07-15T20:47:15.517Z,4.00
2018-07-15T20:49:45.280Z,3.90
2018-07-15T20:52:15.136Z,4.20
2018-07-15T20:54:44.896Z,4.37
2018-07-15T20:57:14.852Z,3.93
2018-07-15T20:59:44.659Z,4.17
2018-07-15T21:02:14.521Z,4.40
2018-07-15T21:04:44.286Z,4.13
2018-07-15T21:07:14.103Z,3.90
2018-07-15T21:09:43.955Z,4.00
2018-07-15T21:12:13.764Z,4.30
2018-07-15T21:14:43.588Z,4.10
2018-07-15T21:17:13.492Z,4.60
2018-07-15T21:19:43.292Z,4.30
2018-07-15T21:22:13.112Z,4.07
2018-07-15T21:24:42.916Z,3.80
2018-07-15T21:27:12.684Z,4.00
2018-07-15T21:29:42.508Z,4.33
2018-07-15T21:32:12.433Z,3.87
2018-07-15T21:34:42.263Z,4.20
2018-07-15T21:37:12.068Z,3.90
2018-07-15T21:39:41.900Z,4.30
2018-07-15T21:42:11.693Z,4.13
2018-07-15T21:44:41.504Z,3.77
2018-07-15T21:47:11.304Z,4.07
2018-07-15T21:49:41.128Z,4.30
2018-07-15T21:52:10.928Z,4.10
2018-07-15T21:54:40.844Z,3.80
2018-07-15T21:57:10.622Z,4.37
2018-07-15T21:59:40.455Z,3.90
2018-07-15T22:02:10.348Z,4.13
2018-07-15T22:04:40.243Z,4.10
2018-07-15T22:09:21.949Z,4.23
2018-07-15T22:11:51.762Z,3.80
2018-07-15T22:14:21.626Z,4.00
2018-07-15T22:16:51.565Z,3.90
2018-07-15T22:19:21.357Z,4.23
2018-07-15T22:21:51.196Z,4.20
2018-07-15T22:24:20.993Z,3.60
2018-07-15T22:26:50.768Z,4.03
2018-07-15T22:29:20.861Z,3.83
2018-07-15T22:31:50.680Z,4.20
2018-07-15T22:34:20.516Z,4.00
2018-07-15T22:36:50.284Z,3.90
2018-07-15T22:39:20.100Z,4.33
2018-07-15T22:41:49.919Z,4.20
2018-07-15T22:44:19.728Z,4.10
2018-07-15T22:46:49.626Z,3.60
2018-07-15T22:49:19.558Z,4.10
2018-07-15T22:51:49.390Z,3.63
2018-07-15T22:54:19.208Z,4.10
2018-07-15T22:56:49.033Z,4.20
2018-07-15T22:59:18.852Z,4.30
2018-07-15T23:01:48.696Z,3.90
2018-07-15T23:04:23.782Z,4.43
2018-07-15T23:06:53.589Z,4.53
2018-07-15T23:09:23.394Z,4.30
2018-07-15T23:11:53.160Z,4.37
2018-07-15T23:14:23.099Z,4.13
2018-07-15T23:16:52.878Z,4.13
2018-07-15T23:19:22.712Z,3.73
2018-07-15T23:21:52.524Z,4.07
2018-07-15T23:24:22.324Z,4.10
2018-07-15T23:26:52.172Z,5.00
2018-07-15T23:29:22.168Z,4.50
2018-07-15T23:31:51.936Z,4.53
2018-07-15T23:34:21.737Z,4.30
2018-07-15T23:36:51.556Z,4.17
2018-07-15T23:39:21.309Z,4.33
2018-07-15T23:41:51.156Z,4.73
2018-07-15T23:44:21.067Z,4.20
2018-07-15T23:46:50.916Z,4.40
2018-07-15T23:49:20.725Z,4.80
2018-07-15T23:51:50.580Z,4.20
2018-07-15T23:54:20.407Z,4.03
2018-07-15T23:56:50.172Z,4.30
2018-07-15T23:59:20.188Z,4.60
